createdAt,value
2022-11-01T00:01:26.708Z,67.50
2022-11-01T00:03:53.425Z,67.20
2022-11-01T00:06:20.124Z,67.70
2022-11-01T00:08:47.029Z,68.00
2022-11-01T00:11:16.197Z,68.00
2022-11-01T00:13:45.371Z,67.80
2022-11-01T00:16:12.624Z,67.90
2022-11-01T00:18:39.419Z,67.90
2022-11-01T00:21:06.231Z,67.80
2022-11-01T00:23:32.975Z,68.10
2022-11-01T00:26:00.655Z,67.90
2022-11-01T00:28:28.574Z,67.80
2022-11-01T00:30:56.604Z,68.00
2022-11-01T00:33:23.816Z,67.90
2022-11-01T00:35:50.534Z,68.10
2022-11-01T00:38:17.981Z,68.00
2022-11-01T00:40:45.413Z,68.30
2022-11-01T00:43:12.898Z,68.40
2022-11-01T00:45:39.579Z,68.50
2022-11-01T00:48:06.575Z,68.60
2022-11-01T00:50:33.235Z,68.60
2022-11-01T00:52:59.958Z,68.40
2022-11-01T00:55:26.632Z,68.60
2022-11-01T00:57:53.376Z,68.60
2022-11-01T01:00:20.136Z,68.70
2022-11-01T01:02:46.831Z,68.50
2022-11-01T01:05:13.513Z,68.70
2022-11-01T01:07:40.208Z,68.50
2022-11-01T01:10:08.153Z,68.70
2022-11-01T01:12:35.061Z,68.60
2022-11-01T01:15:01.875Z,68.40
2022-11-01T01:17:31.312Z,68.70
2022-11-01T01:20:00.499Z,68.80
2022-11-01T01:22:28.401Z,68.70
2022-11-01T01:24:55.149Z,68.60
2022-11-01T01:27:22.044Z,68.80
2022-11-01T01:29:48.759Z,68.90
2022-11-01T01:32:18.443Z,68.80
2022-11-01T01:34:45.254Z,68.70
2022-11-01T01:37:13.327Z,68.70
2022-11-01T01:39:40.056Z,70.00
2022-11-01T01:42:18.138Z,69.50
2022-11-01T01:44:50.102Z,69.80
2022-11-01T01:47:25.240Z,70.00
2022-11-01T01:50:08.048Z,70.30
2022-11-01T01:52:54.287Z,70.50
2022-11-01T01:55:42.207Z,70.70
2022-11-01T01:58:10.999Z,71.10
2022-11-01T02:00:38.016Z,71.10
2022-11-01T02:03:05.043Z,71.00
2022-11-01T02:05:39.394Z,70.90
2022-11-01T02:08:07.201Z,70.80
2022-11-01T02:10:34.261Z,70.40
2022-11-01T02:13:01.174Z,70.30
2022-11-01T02:15:44.221Z,70.40
2022-11-01T02:18:24.050Z,70.50
2022-11-01T02:21:20.565Z,70.80
2022-11-01T02:24:16.828Z,71.80
2022-11-01T02:27:18.615Z,72.00
2022-11-01T02:30:05.937Z,72.20
2022-11-01T02:32:47.349Z,72.60
2022-11-01T02:35:46.394Z,72.80
2022-11-01T02:38:26.770Z,73.10
2022-11-01T02:41:05.534Z,73.60
2022-11-01T02:43:45.404Z,73.60
2022-11-01T02:46:30.776Z,73.60
2022-11-01T02:48:58.708Z,73.70
2022-11-01T02:51:26.059Z,73.70
2022-11-01T02:53:52.718Z,74.00
2022-11-01T02:56:19.700Z,73.90
2022-11-01T02:58:48.146Z,73.90
2022-11-01T03:01:21.678Z,74.00
2022-11-01T03:03:49.180Z,74.10
2022-11-01T03:06:25.186Z,73.90
2022-11-01T03:08:55.373Z,74.00
2022-11-01T03:11:24.388Z,74.10
2022-11-01T03:13:57.451Z,74.00
2022-11-01T03:16:30.075Z,74.00
2022-11-01T03:19:03.741Z,74.10
2022-11-01T03:21:36.953Z,74.40
2022-11-01T03:24:16.081Z,74.50
2022-11-01T03:26:44.015Z,74.40
2022-11-01T03:29:12.249Z,74.30
2022-11-01T03:31:39.741Z,74.20
2022-11-01T03:34:13.107Z,74.30
2022-11-01T03:36:45.353Z,74.30
2022-11-01T03:39:17.590Z,74.60
2022-11-01T03:41:46.505Z,74.40
2022-11-01T03:44:13.797Z,74.60
2022-11-01T03:46:42.009Z,74.50
2022-11-01T03:49:08.695Z,74.60
2022-11-01T03:51:35.379Z,74.60
2022-11-01T03:54:02.013Z,74.60
2022-11-01T03:56:28.648Z,74.80
2022-11-01T03:58:55.255Z,74.80
2022-11-01T04:01:21.997Z,74.80
2022-11-01T04:03:48.717Z,74.80
2022-11-01T04:06:15.419Z,74.90
2022-11-01T04:08:42.078Z,74.90
2022-11-01T04:11:08.753Z,75.00
2022-11-01T04:13:35.431Z,75.30
2022-11-01T04:16:20.605Z,75.60
2022-11-01T04:19:05.970Z,76.00
2022-11-01T04:21:32.675Z,76.60
2022-11-01T04:23:59.350Z,77.30
2022-11-01T04:26:26.130Z,78.30
2022-11-01T04:28:58.677Z,79.10
2022-11-01T04:31:30.494Z,79.50
2022-11-01T04:33:58.345Z,79.80
2022-11-01T04:36:25.761Z,80.30
2022-11-01T04:38:55.673Z,80.40
2022-11-01T04:41:24.301Z,80.50
2022-11-01T04:43:53.725Z,81.50
2022-11-01T04:46:20.577Z,81.40
2022-11-01T04:48:47.260Z,81.70
2022-11-01T04:51:13.916Z,81.80
2022-11-01T04:53:40.582Z,82.10
2022-11-01T04:56:08.941Z,82.40
2022-11-01T04:58:39.976Z,82.40
2022-11-01T05:01:09.982Z,82.40
2022-11-01T05:03:36.814Z,83.50
2022-11-01T05:06:03.536Z,83.10
2022-11-01T05:08:30.322Z,83.40
2022-11-01T05:10:57.320Z,84.60
2022-11-01T05:13:24.201Z,84.90
2022-11-01T05:16:06.567Z,86.70
2022-11-01T05:18:40.753Z,86.90
2022-11-01T05:21:07.406Z,88.10
2022-11-01T05:23:34.184Z,88.60
2022-11-01T05:26:00.812Z,90.00
2022-11-01T05:28:27.471Z,90.00
2022-11-01T05:30:54.114Z,90.10
2022-11-01T05:33:20.897Z,90.40
2022-11-01T05:35:47.552Z,90.70
2022-11-01T05:38:14.217Z,90.70
2022-11-01T05:40:40.914Z,90.60
2022-11-01T05:43:07.580Z,90.60
2022-11-01T05:45:34.357Z,90.80
2022-11-01T05:48:05.006Z,90.80
2022-11-01T05:50:31.721Z,91.20
2022-11-01T05:53:08.506Z,90.60
2022-11-01T05:55:36.253Z,90.60
2022-11-01T05:58:03.109Z,90.70
2022-11-01T06:00:29.858Z,90.50
2022-11-01T06:03:00.397Z,90.50
2022-11-01T06:05:27.932Z,90.60
2022-11-01T06:07:54.680Z,90.80
2022-11-01T06:10:21.512Z,90.80
2022-11-01T06:12:48.178Z,90.60
2022-11-01T06:15:14.949Z,90.60
2022-11-01T06:17:41.992Z,90.60
2022-11-01T06:20:09.097Z,90.40
2022-11-01T06:22:36.579Z,90.60
2022-11-01T06:25:04.151Z,90.60
2022-11-01T06:27:31.185Z,90.70
2022-11-01T06:29:57.830Z,90.70
2022-11-01T06:32:24.481Z,90.60
2022-11-01T06:34:51.165Z,90.60
2022-11-01T06:37:17.832Z,90.70
2022-11-01T06:39:44.522Z,90.80
2022-11-01T06:42:11.197Z,90.80
2022-11-01T06:44:37.831Z,90.80
2022-11-01T06:47:04.645Z,90.80
2022-11-01T06:49:31.708Z,90.70
2022-11-01T06:51:58.723Z,91.00
2022-11-01T06:54:25.783Z,91.10
2022-11-01T06:56:52.437Z,91.10
2022-11-01T06:59:19.181Z,91.00
2022-11-01T07:01:45.888Z,91.20
2022-11-01T07:04:12.730Z,91.20
2022-11-01T07:06:39.513Z,91.40
2022-11-01T07:09:06.152Z,91.40
2022-11-01T07:11:33.580Z,91.80
2022-11-01T07:14:00.390Z,91.70
2022-11-01T07:16:27.163Z,91.60
2022-11-01T07:18:53.909Z,91.90
2022-11-01T07:21:20.764Z,91.40
2022-11-01T07:23:47.436Z,91.40
2022-11-01T07:26:14.132Z,91.50
2022-11-01T07:28:40.925Z,91.60
2022-11-01T07:31:07.726Z,91.40
2022-11-01T07:33:34.544Z,91.30
2022-11-01T07:36:01.586Z,91.30
2022-11-01T07:38:28.513Z,91.70
2022-11-01T07:40:55.313Z,91.50
2022-11-01T07:43:22.342Z,91.90
2022-11-01T07:45:49.374Z,92.40
2022-11-01T07:48:18.354Z,92.90
2022-11-01T07:50:45.638Z,93.30
2022-11-01T07:53:17.462Z,93.70
2022-11-01T07:55:44.525Z,94.30
2022-11-01T07:58:12.028Z,94.70
2022-11-01T08:00:39.605Z,95.00
2022-11-01T08:03:08.977Z,95.40
2022-11-01T08:05:36.248Z,95.90
2022-11-01T08:08:03.695Z,96.30
2022-11-01T08:10:31.644Z,96.30
2022-11-01T08:13:21.194Z,96.80
2022-11-01T08:15:49.095Z,96.70
2022-11-01T08:18:16.958Z,96.50
2022-11-01T08:20:43.814Z,96.40
2022-11-01T08:23:11.104Z,96.20
2022-11-01T08:25:38.386Z,96.20
2022-11-01T08:28:17.273Z,96.30
2022-11-01T08:30:45.580Z,96.10
2022-11-01T08:33:12.256Z,95.90
2022-11-01T08:35:38.926Z,96.50
2022-11-01T08:38:05.629Z,95.90
2022-11-01T08:40:33.287Z,96.00
2022-11-01T08:43:00.662Z,96.20
2022-11-01T08:45:27.738Z,96.20
2022-11-01T08:47:59.289Z,96.50
2022-11-01T08:50:26.715Z,96.40
2022-11-01T08:52:53.556Z,95.90
2022-11-01T08:55:21.414Z,95.80
2022-11-01T08:57:48.349Z,95.20
2022-11-01T09:00:16.699Z,94.90
2022-11-01T09:02:43.354Z,94.20
2022-11-01T09:05:10.164Z,93.80
2022-11-01T09:07:37.384Z,93.70
2022-11-01T09:10:05.007Z,93.50
2022-11-01T09:12:31.790Z,93.10
2022-11-01T09:14:58.499Z,93.30
2022-11-01T09:17:26.136Z,93.00
2022-11-01T09:19:52.901Z,92.90
2022-11-01T09:22:19.586Z,92.30
2022-11-01T09:24:46.322Z,92.00
2022-11-01T09:27:13.110Z,91.70
2022-11-01T09:29:40.491Z,91.30
2022-11-01T09:32:07.178Z,91.70
2022-11-01T09:34:35.145Z,91.60
2022-11-01T09:37:02.088Z,91.40
2022-11-01T09:39:28.732Z,90.80
2022-11-01T09:42:04.962Z,90.60
2022-11-01T09:44:34.667Z,90.40
2022-11-01T09:47:05.510Z,90.50
2022-11-01T09:49:35.341Z,90.50
2022-11-01T09:52:02.001Z,90.50
2022-11-01T09:54:28.908Z,90.50
2022-11-01T09:57:01.407Z,90.90
2022-11-01T09:59:38.716Z,91.00
2022-11-01T10:02:15.365Z,91.20
2022-11-01T10:05:17.706Z,91.20
2022-11-01T10:08:30.675Z,91.20
2022-11-01T10:11:06.587Z,91.10
2022-11-01T10:13:59.766Z,90.80
2022-11-01T10:16:36.580Z,90.90
2022-11-01T10:19:15.072Z,90.80
2022-11-01T10:21:49.671Z,91.20
2022-11-01T10:24:18.138Z,90.90
2022-11-01T10:26:45.550Z,90.90
2022-11-01T10:29:27.290Z,90.90
2022-11-01T10:31:55.265Z,91.00
2022-11-01T10:34:33.384Z,90.90
2022-11-01T10:37:27.041Z,90.60
2022-11-01T10:39:59.156Z,90.40
2022-11-01T10:42:29.932Z,90.30
2022-11-01T10:45:00.569Z,90.00
2022-11-01T10:47:28.129Z,90.00
2022-11-01T10:50:06.546Z,89.80
2022-11-01T10:53:21.860Z,89.60
2022-11-01T10:55:52.340Z,89.00
2022-11-01T10:58:20.880Z,88.60
2022-11-01T11:00:47.974Z,88.00
2022-11-01T11:03:21.627Z,88.30
2022-11-01T11:05:49.312Z,87.10
2022-11-01T11:08:19.120Z,87.60
2022-11-01T11:10:46.162Z,88.20
2022-11-01T11:13:15.835Z,89.10
2022-11-01T11:15:50.234Z,89.50
2022-11-01T11:18:25.302Z,90.00
2022-11-01T11:21:00.525Z,90.20
2022-11-01T11:23:34.174Z,90.60
2022-11-01T11:26:22.277Z,90.90
2022-11-01T11:28:54.970Z,91.20
2022-11-01T11:31:30.385Z,91.60
2022-11-01T11:34:03.033Z,91.90
2022-11-01T11:36:36.969Z,92.20
2022-11-01T11:39:04.551Z,92.40
2022-11-01T11:41:33.564Z,92.50
2022-11-01T11:44:01.185Z,92.70
2022-11-01T11:46:28.071Z,92.60
2022-11-01T11:49:01.368Z,92.30
2022-11-01T11:51:29.749Z,92.20
2022-11-01T11:54:31.657Z,92.20
2022-11-01T11:57:11.531Z,92.40
2022-11-01T11:59:38.828Z,92.60
2022-11-01T12:02:15.809Z,92.70
2022-11-01T12:04:49.306Z,92.80
2022-11-01T12:07:51.650Z,92.70
2022-11-01T12:10:29.265Z,92.40
2022-11-01T12:12:59.271Z,92.10
2022-11-01T12:15:30.162Z,91.90
2022-11-01T12:17:57.650Z,92.30
2022-11-01T12:20:26.018Z,92.30
2022-11-01T12:23:25.486Z,92.60
2022-11-01T12:25:52.427Z,92.80
2022-11-01T12:28:28.292Z,92.70
2022-11-01T12:30:58.463Z,92.40
2022-11-01T12:33:29.286Z,92.30
2022-11-01T12:35:57.261Z,92.20
2022-11-01T12:38:47.144Z,92.10
2022-11-01T12:41:42.898Z,91.80
2022-11-01T12:44:32.810Z,91.70
2022-11-01T12:47:06.653Z,91.70
2022-11-01T12:49:47.795Z,91.70
2022-11-01T12:52:17.963Z,91.80
2022-11-01T12:55:26.053Z,91.90
2022-11-01T12:57:54.965Z,92.00
2022-11-01T13:00:21.893Z,92.10
2022-11-01T13:03:23.046Z,92.20
2022-11-01T13:06:09.928Z,92.50
2022-11-01T13:08:53.589Z,92.60
2022-11-01T13:11:41.108Z,92.40
2022-11-01T13:14:31.982Z,92.50
2022-11-01T13:17:22.957Z,92.40
2022-11-01T13:19:59.474Z,92.10
2022-11-01T13:23:05.230Z,92.00
2022-11-01T13:25:47.973Z,92.00
2022-11-01T13:28:43.150Z,92.30
2022-11-01T13:31:38.252Z,92.40
2022-11-01T13:34:27.198Z,92.80
2022-11-01T13:37:09.328Z,92.90
2022-11-01T13:39:48.931Z,92.90
2022-11-01T13:42:43.087Z,93.00
2022-11-01T13:45:46.834Z,93.10
2022-11-01T13:48:21.662Z,93.10
2022-11-01T13:51:17.919Z,93.20
2022-11-01T13:53:49.409Z,93.20
2022-11-01T13:56:34.096Z,93.20
2022-11-01T13:59:00.955Z,93.20
2022-11-01T14:01:31.783Z,93.20
2022-11-01T14:04:13.894Z,93.20
2022-11-01T14:06:42.128Z,93.20
2022-11-01T14:09:25.524Z,93.00
2022-11-01T14:12:10.051Z,93.00
2022-11-01T14:14:38.624Z,93.00
2022-11-01T14:17:20.584Z,93.10
2022-11-01T14:19:48.159Z,93.30
2022-11-01T14:22:27.723Z,93.20
2022-11-01T14:24:58.933Z,93.10
2022-11-01T14:27:29.773Z,93.00
2022-11-01T14:29:56.753Z,93.00
2022-11-01T14:32:26.838Z,93.10
2022-11-01T14:35:12.144Z,93.20
2022-11-01T14:37:47.366Z,93.30
2022-11-01T14:40:20.889Z,93.30
2022-11-01T14:42:48.534Z,93.40
2022-11-01T14:45:40.079Z,93.50
2022-11-01T14:48:16.411Z,93.60
2022-11-01T14:50:53.958Z,93.60
2022-11-01T14:53:27.744Z,93.50
2022-11-01T14:56:18.944Z,93.40
2022-11-01T14:58:46.248Z,93.30
2022-11-01T15:01:23.263Z,93.20
2022-11-01T15:03:58.715Z,93.30
2022-11-01T15:06:28.143Z,93.30
2022-11-01T15:08:59.595Z,93.30
2022-11-01T15:11:31.530Z,93.40
2022-11-01T15:14:02.948Z,93.70
2022-11-01T15:16:30.309Z,93.50
2022-11-01T15:18:59.954Z,93.50
2022-11-01T15:21:31.364Z,93.60
2022-11-01T15:23:59.238Z,93.80
2022-11-01T15:26:29.735Z,93.90
2022-11-01T15:28:59.837Z,93.90
2022-11-01T15:31:28.027Z,93.90
2022-11-01T15:34:19.374Z,94.00
2022-11-01T15:36:46.047Z,94.10
2022-11-01T15:39:19.158Z,94.10
2022-11-01T15:41:46.669Z,94.20
2022-11-01T15:44:23.767Z,94.30
2022-11-01T15:46:53.708Z,94.40
2022-11-01T15:49:28.169Z,94.30
2022-11-01T15:51:58.322Z,94.40
2022-11-01T15:54:45.120Z,94.40
2022-11-01T15:57:22.473Z,94.50
2022-11-01T16:00:06.860Z,94.50
2022-11-01T16:02:48.686Z,94.50
2022-11-01T16:05:23.386Z,94.60
2022-11-01T16:07:50.066Z,94.60
2022-11-01T16:10:27.997Z,94.70
2022-11-01T16:12:55.463Z,94.80
2022-11-01T16:15:31.017Z,94.90
2022-11-01T16:18:00.158Z,94.90
2022-11-01T16:20:36.725Z,94.90
2022-11-01T16:23:06.179Z,94.90
2022-11-01T16:25:34.895Z,94.90
2022-11-01T16:28:10.782Z,94.90
2022-11-01T16:30:42.764Z,94.90
2022-11-01T16:33:25.033Z,94.90
2022-11-01T16:35:53.437Z,95.00
2022-11-01T16:38:43.498Z,95.00
2022-11-01T16:41:22.176Z,95.10
2022-11-01T16:43:55.728Z,95.10
2022-11-01T16:46:24.228Z,95.10
2022-11-01T16:49:05.633Z,95.20
2022-11-01T16:51:33.427Z,95.30
2022-11-01T16:54:00.552Z,95.40
2022-11-01T16:56:38.347Z,95.50
2022-11-01T16:59:33.211Z,95.70
2022-11-01T17:02:01.577Z,95.90
2022-11-01T17:04:28.485Z,96.10
2022-11-01T17:06:58.339Z,96.10
2022-11-01T17:09:28.102Z,96.30
2022-11-01T17:11:54.865Z,96.40
2022-11-01T17:14:22.168Z,96.50
2022-11-01T17:16:50.350Z,96.40
2022-11-01T17:19:29.816Z,96.70
2022-11-01T17:21:57.454Z,96.40
2022-11-01T17:24:27.179Z,96.50
2022-11-01T17:26:56.496Z,96.70
2022-11-01T17:29:24.465Z,96.80
2022-11-01T17:31:51.499Z,97.00
2022-11-01T17:34:18.892Z,97.20
2022-11-01T17:36:47.920Z,97.30
2022-11-01T17:39:14.843Z,97.40
2022-11-01T17:41:41.630Z,97.40
2022-11-01T17:44:12.741Z,97.50
2022-11-01T17:46:39.966Z,97.60
2022-11-01T17:49:06.873Z,97.60
2022-11-01T17:51:34.158Z,97.80
2022-11-01T17:54:01.213Z,97.80
2022-11-01T17:56:27.986Z,97.70
2022-11-01T17:58:54.752Z,97.80
2022-11-01T18:01:22.097Z,97.90
2022-11-01T18:03:49.450Z,97.80
2022-11-01T18:06:16.705Z,97.90
2022-11-01T18:08:46.763Z,97.90
2022-11-01T18:11:41.925Z,97.80
2022-11-01T18:14:17.087Z,97.90
2022-11-01T18:16:49.999Z,97.80
2022-11-01T18:19:17.037Z,97.80
2022-11-01T18:21:56.787Z,97.90
2022-11-01T18:24:41.230Z,98.00
2022-11-01T18:27:12.540Z,98.00
2022-11-01T18:29:41.657Z,97.90
2022-11-01T18:32:17.087Z,97.70
2022-11-01T18:35:00.143Z,97.60
2022-11-01T18:37:40.585Z,97.40
2022-11-01T18:40:25.489Z,97.30
2022-11-01T18:42:56.153Z,97.20
2022-11-01T18:45:30.376Z,97.10
2022-11-01T18:48:18.125Z,97.10
2022-11-01T18:50:44.877Z,97.20
2022-11-01T18:53:14.808Z,97.20
2022-11-01T18:55:44.394Z,97.20
2022-11-01T18:58:29.641Z,97.10
2022-11-01T19:01:12.154Z,97.10
2022-11-01T19:03:38.953Z,97.00
2022-11-01T19:06:26.097Z,97.00
2022-11-01T19:08:56.108Z,97.10
2022-11-01T19:11:26.382Z,97.10
2022-11-01T19:13:53.731Z,97.30
2022-11-01T19:16:20.826Z,97.30
2022-11-01T19:18:49.716Z,97.50
2022-11-01T19:21:19.104Z,97.50
2022-11-01T19:23:49.608Z,97.50
2022-11-01T19:26:36.745Z,97.40
2022-11-01T19:29:15.660Z,97.30
2022-11-01T19:31:43.746Z,97.10
2022-11-01T19:34:19.873Z,97.00
2022-11-01T19:36:48.494Z,97.00
2022-11-01T19:39:27.174Z,97.00
2022-11-01T19:41:58.602Z,97.00
2022-11-01T19:44:25.890Z,97.10
2022-11-01T19:47:00.032Z,97.10
2022-11-01T19:49:31.493Z,97.20
2022-11-01T19:52:10.490Z,97.20
2022-11-01T19:54:39.991Z,97.20
2022-11-01T19:57:19.046Z,97.10
2022-11-01T19:59:45.783Z,97.30
2022-11-01T20:02:22.593Z,97.30
2022-11-01T20:04:56.365Z,97.40
2022-11-01T20:07:26.859Z,97.50
2022-11-01T20:09:58.451Z,97.60
2022-11-01T20:12:25.556Z,97.70
2022-11-01T20:14:52.407Z,97.80
2022-11-01T20:17:19.492Z,97.90
2022-11-01T20:19:46.160Z,98.00
2022-11-01T20:22:13.189Z,98.00
2022-11-01T20:24:39.905Z,98.00
2022-11-01T20:27:07.273Z,98.00
2022-11-01T20:29:33.994Z,98.00
2022-11-01T20:32:00.834Z,98.10
2022-11-01T20:34:28.694Z,98.20
2022-11-01T20:37:27.019Z,98.20
2022-11-01T20:39:42.066Z,98.30
2022-11-01T20:42:08.710Z,98.40
2022-11-01T20:44:35.370Z,98.50
2022-11-01T20:47:02.051Z,98.60
2022-11-01T20:49:28.726Z,98.70
2022-11-01T20:51:57.734Z,98.80
2022-11-01T20:54:31.154Z,98.70
2022-11-01T20:56:57.810Z,98.90
2022-11-01T20:59:24.580Z,98.80
2022-11-01T21:01:51.525Z,98.90
2022-11-01T21:04:19.306Z,98.80
2022-11-01T21:06:46.051Z,98.80
2022-11-01T21:09:37.782Z,98.60
2022-11-01T21:12:30.935Z,98.70
2022-11-01T21:14:59.254Z,98.60
2022-11-01T21:17:27.589Z,98.70
2022-11-01T21:19:54.531Z,98.80
2022-11-01T21:22:22.180Z,98.80
2022-11-01T21:24:49.957Z,98.90
2022-11-01T21:27:23.835Z,99.00
2022-11-01T21:29:51.029Z,99.20
2022-11-01T21:32:47.322Z,99.20
2022-11-01T21:35:20.411Z,99.30
2022-11-01T21:37:50.393Z,99.30
2022-11-01T21:40:28.861Z,99.40
2022-11-01T21:42:56.232Z,99.50
2022-11-01T21:45:29.668Z,99.50
2022-11-01T21:48:03.008Z,99.50
2022-11-01T21:50:30.989Z,99.70
2022-11-01T21:52:58.280Z,99.70
2022-11-01T21:55:25.008Z,99.70
2022-11-01T21:57:51.681Z,99.80
2022-11-01T22:00:18.469Z,99.80
2022-11-01T22:02:45.242Z,99.70
2022-11-01T22:05:12.035Z,99.70
2022-11-01T22:07:38.798Z,99.70
2022-11-01T22:10:05.859Z,99.70
2022-11-01T22:12:32.527Z,99.70
2022-11-01T22:14:59.196Z,99.60
2022-11-01T22:17:25.996Z,99.70
2022-11-01T22:19:52.810Z,99.60
2022-11-01T22:22:19.475Z,99.70
2022-11-01T22:24:46.138Z,99.70
2022-11-01T22:27:12.810Z,99.70
2022-11-01T22:29:39.429Z,99.80
2022-11-01T22:32:06.081Z,99.80
2022-11-01T22:34:32.852Z,99.80
2022-11-01T22:37:00.428Z,99.90
2022-11-01T22:39:27.739Z,99.90
2022-11-01T22:41:54.863Z,99.80
2022-11-01T22:44:26.888Z,99.80
2022-11-01T22:47:00.974Z,99.80
2022-11-01T22:49:47.553Z,99.80
2022-11-01T22:52:41.169Z,99.80
2022-11-01T22:55:10.900Z,99.80
2022-11-01T22:57:44.782Z,99.80
2022-11-01T23:00:29.800Z,99.80
2022-11-01T23:03:27.487Z,99.80
2022-11-01T23:05:57.041Z,99.90
2022-11-01T23:08:27.307Z,99.90
2022-11-01T23:10:54.142Z,99.90
2022-11-01T23:13:47.043Z,99.90
2022-11-01T23:16:25.880Z,99.80
2022-11-01T23:18:53.931Z,99.80
2022-11-01T23:21:21.637Z,99.80
2022-11-01T23:23:48.888Z,99.80
2022-11-01T23:26:17.433Z,99.90
2022-11-01T23:28:49.118Z,99.90
2022-11-01T23:31:16.411Z,99.90
2022-11-01T23:33:45.135Z,99.90
2022-11-01T23:36:20.477Z,99.90
2022-11-01T23:38:49.924Z,99.90
2022-11-01T23:41:34.128Z,99.90
2022-11-01T23:44:03.325Z,99.90
2022-11-01T23:46:30.187Z,99.90
2022-11-01T23:49:04.120Z,99.80
2022-11-01T23:51:31.369Z,99.80
2022-11-01T23:53:58.577Z,99.50
2022-11-01T23:56:25.256Z,99.30
2022-11-01T23:59:10.231Z,99.30
